Waf_motion — 4RBK — position and weather

sailwx.info

Track history (hours):
 
Tides and Currents Weather Stations Pressure Air Temp Water Temp Dewpoint Dewpoint Depression Visibility Wind Speed Wind Dir Waves Ship Positions

Waf_motion

Last reported at 2016-Jul-05 04:07 UTC. Time now 2016-Jul-28 08:37 UTC.
Position N 16°35' W 018°03'.
Warning: this ship's position is 23 days out of date.

Length 140 m; draft 7.6 m.

Type: Ship (hazmat cat A). MMSI: 417222324.

Date/timePositionNaut miles runAvg speedWind from/ knotsBaromVisibWave heightAir tempDewpointWater temp
2016-Jul-05 04:07N 16°35' W 018°03'  
2016-Jul-02 22:15N 27°27' W 014°05'1013.5
2016-Jul-02 21:31N 27°35' W 013°57'1513.9
2016-Jul-02 20:26N 27°45' W 013°45'1213.7
2016-Jul-02 19:32N 27°52' W 013°34'3313.5
2016-Jul-02 17:07N 28°19' W 013°13'60413.2
2016-Jun-30 19:34N 38°01' W 010°00'4413.7
2016-Jun-30 16:21N 38°44' W 010°07'5213.6
2016-Jun-30 12:32N 39°36' W 010°07'29310.8
2016-Jun-29 09:29N 44°04' W 007°27'8112.9
2016-Jun-29 03:12N 43°52' W 005°35'812.7
2016-Jun-29 02:33N 43°51' W 005°24'  
2016-Jun-26 04:12N 49°44' W 003°38'914.3
2016-Jun-26 03:33N 49°48' W 003°25'1413.9
2016-Jun-26 02:33N 49°55' W 003°07'1312.8
2016-Jun-26 01:33N 49°60' W 002°48'5010.0
2016-Jun-25 20:33N 49°59' W 001°30'1313.2
2016-Jun-25 19:33N 49°52' W 001°13'1414.3
2016-Jun-25 18:33N 49°45' W 000°54'1414.4
2016-Jun-25 17:33N 49°37' W 000°35'1414.0
2016-Jun-25 16:33N 49°32' W 000°15'1313.3
2016-Jun-25 15:34N 49°27' E 000°04'1313.1
2016-Jun-25 14:33N 49°27' E 000°24'9 8.7
2016-Jun-25 13:33N 49°26' E 000°37'8 5.9
2016-Jun-25 12:15N 49°29' E 000°48'  
Track history (hours):
 
Tides and Currents Weather Stations Pressure Air Temp Water Temp Dewpoint Dewpoint Depression Visibility Wind Speed Wind Dir Waves Ship Positions

Waf_motion

Last reported at 2016-Jul-05 04:07 UTC. Time now 2016-Jul-28 08:37 UTC.
Position N 16°35' W 018°03'.
Warning: this ship's position is 23 days out of date.

Length 140 m; draft 7.6 m.

Type: Ship (hazmat cat A). MMSI: 417222324.

Date/timePositionNaut miles runAvg speedWind from/ knotsBaromVisibWave heightAir tempDewpointWater temp
2016-Jul-05 04:07N 16°35' W 018°03'  
2016-Jul-02 22:15N 27°27' W 014°05'1013.5
2016-Jul-02 21:31N 27°35' W 013°57'1513.9
2016-Jul-02 20:26N 27°45' W 013°45'1213.7
2016-Jul-02 19:32N 27°52' W 013°34'3313.5
2016-Jul-02 17:07N 28°19' W 013°13'60413.2
2016-Jun-30 19:34N 38°01' W 010°00'4413.7
2016-Jun-30 16:21N 38°44' W 010°07'5213.6
2016-Jun-30 12:32N 39°36' W 010°07'29310.8
2016-Jun-29 09:29N 44°04' W 007°27'8112.9
2016-Jun-29 03:12N 43°52' W 005°35'812.7
2016-Jun-29 02:33N 43°51' W 005°24'  
2016-Jun-26 04:12N 49°44' W 003°38'914.3
2016-Jun-26 03:33N 49°48' W 003°25'1413.9
2016-Jun-26 02:33N 49°55' W 003°07'1312.8
2016-Jun-26 01:33N 49°60' W 002°48'5010.0
2016-Jun-25 20:33N 49°59' W 001°30'1313.2
2016-Jun-25 19:33N 49°52' W 001°13'1414.3
2016-Jun-25 18:33N 49°45' W 000°54'1414.4
2016-Jun-25 17:33N 49°37' W 000°35'1414.0
2016-Jun-25 16:33N 49°32' W 000°15'1313.3
2016-Jun-25 15:34N 49°27' E 000°04'1313.1
2016-Jun-25 14:33N 49°27' E 000°24'9 8.7
2016-Jun-25 13:33N 49°26' E 000°37'8 5.9
2016-Jun-25 12:15N 49°29' E 000°48'  

Dump ship's entire track history